createdAt,value
2022-08-20T00:02:11.847Z,100479.47
2022-08-20T00:04:39.647Z,100477.56
2022-08-20T00:07:07.446Z,100469.41
2022-08-20T00:09:36.715Z,100469.63
2022-08-20T00:12:05.604Z,100486.22
2022-08-20T00:14:33.878Z,100479.72
2022-08-20T00:17:01.624Z,100488.94
2022-08-20T00:19:30.494Z,100497.34
2022-08-20T00:21:58.648Z,100496.34
2022-08-20T00:24:26.263Z,100494.16
2022-08-20T00:26:53.806Z,100494.69
2022-08-20T00:29:22.303Z,100493.34
2022-08-20T00:31:50.485Z,100490.16
2022-08-20T00:34:18.217Z,100494.19
2022-08-20T00:36:47.089Z,100488.47
2022-08-20T00:39:14.614Z,100489.31
2022-08-20T00:41:42.166Z,100481.44
2022-08-20T00:44:13.135Z,100494.19
2022-08-20T00:46:41.306Z,100489.66
2022-08-20T00:49:12.343Z,100490.97
2022-08-20T00:51:42.357Z,100490.72
2022-08-20T00:54:15.649Z,100490.72
2022-08-20T00:56:44.878Z,100493.72
2022-08-20T00:59:17.730Z,100499.69
2022-08-20T01:01:55.393Z,100502.28
2022-08-20T01:04:26.125Z,100508.09
2022-08-20T01:06:53.719Z,100505.09
2022-08-20T01:09:49.803Z,100513.78
2022-08-20T01:12:10.734Z,100499.69
2022-08-20T01:14:43.761Z,100503.44
2022-08-20T01:17:15.937Z,100509.47
2022-08-20T01:19:51.678Z,100503.75
2022-08-20T01:22:42.176Z,100503.50
2022-08-20T01:25:16.183Z,100514.31
2022-08-20T01:27:45.439Z,100522.16
2022-08-20T01:30:14.347Z,100517.78
2022-08-20T01:32:41.852Z,100518.56
2022-08-20T01:35:10.412Z,100513.09
2022-08-20T01:37:38.069Z,100516.91
2022-08-20T01:40:09.565Z,100518.78
2022-08-20T01:42:53.979Z,100516.03
2022-08-20T01:45:30.422Z,100513.63
2022-08-20T01:47:58.773Z,100519.59
2022-08-20T01:50:29.086Z,100520.66
2022-08-20T01:53:00.581Z,100527.19
2022-08-20T01:55:28.288Z,100524.13
2022-08-20T01:57:55.961Z,100520.06
2022-08-20T02:00:24.242Z,100527.94
2022-08-20T02:02:53.137Z,100529.19
2022-08-20T02:05:21.380Z,100524.53
2022-08-20T02:07:49.155Z,100526.47
2022-08-20T02:10:18.224Z,100528.13
2022-08-20T02:12:45.862Z,100519.41
2022-08-20T02:15:13.989Z,100528.09
2022-08-20T02:17:41.973Z,100526.47
2022-08-20T02:20:13.823Z,100520.47
2022-08-20T02:22:49.240Z,100524.22
2022-08-20T02:25:19.345Z,100521.25
2022-08-20T02:27:48.455Z,100519.38
2022-08-20T02:30:28.042Z,100525.31
2022-08-20T02:32:56.295Z,100532.94
2022-08-20T02:35:25.523Z,100534.03
2022-08-20T02:37:53.673Z,100536.09
2022-08-20T02:40:27.263Z,100540.50
2022-08-20T02:42:57.970Z,100536.47
2022-08-20T02:45:25.525Z,100538.56
2022-08-20T02:47:55.613Z,100537.25
2022-08-20T02:50:26.047Z,100543.78
2022-08-20T02:52:54.167Z,100544.03
2022-08-20T02:55:27.767Z,100544.09
2022-08-20T02:57:57.897Z,100543.31
2022-08-20T03:00:26.732Z,100534.91
2022-08-20T03:02:54.234Z,100541.44
2022-08-20T03:05:21.886Z,100545.50
2022-08-20T03:07:53.586Z,100536.00
2022-08-20T03:10:23.992Z,100536.75
2022-08-20T03:12:52.531Z,100534.53
2022-08-20T03:15:20.603Z,100541.13
2022-08-20T03:17:48.437Z,100539.28
2022-08-20T03:20:16.091Z,100541.75
2022-08-20T03:22:43.703Z,100536.03
2022-08-20T03:25:12.974Z,100542.22
2022-08-20T03:27:40.486Z,100544.94
2022-08-20T03:30:10.486Z,100541.13
2022-08-20T03:32:38.520Z,100548.81
2022-08-20T03:35:08.229Z,100553.69
2022-08-20T03:37:37.096Z,100547.97
2022-08-20T03:40:14.397Z,100546.34
2022-08-20T03:42:41.966Z,100551.72
2022-08-20T03:45:11.300Z,100541.13
2022-08-20T03:47:38.814Z,100548.16
2022-08-20T03:50:08.801Z,100546.56
2022-08-20T03:52:42.285Z,100555.28
2022-08-20T03:55:11.773Z,100556.94
2022-08-20T03:57:45.671Z,100558.28
2022-08-20T04:00:15.109Z,100560.69
2022-08-20T04:02:42.668Z,100553.06
2022-08-20T04:05:10.304Z,100557.38
2022-08-20T04:07:37.788Z,100551.97
2022-08-20T04:10:07.945Z,100552.47
2022-08-20T04:12:48.624Z,100554.06
2022-08-20T04:15:21.246Z,100552.16
2022-08-20T04:17:51.023Z,100551.88
2022-08-20T04:20:26.081Z,100559.75
2022-08-20T04:22:58.630Z,100549.50
2022-08-20T04:25:28.410Z,100557.66
2022-08-20T04:27:59.034Z,100555.53
2022-08-20T04:30:27.112Z,100559.53
2022-08-20T04:32:55.278Z,100561.50
2022-08-20T04:35:25.309Z,100558.44
2022-08-20T04:37:59.494Z,100552.44
2022-08-20T04:40:44.814Z,100557.25
2022-08-20T04:43:13.843Z,100563.63
2022-08-20T04:45:41.638Z,100566.06
2022-08-20T04:48:14.278Z,100572.53
2022-08-20T04:50:44.321Z,100577.16
2022-08-20T04:53:14.457Z,100570.75
2022-08-20T04:55:43.340Z,100573.78
2022-08-20T04:58:13.716Z,100570.31
2022-08-20T05:00:41.872Z,100572.16
2022-08-20T05:03:09.370Z,100569.50
2022-08-20T05:05:36.953Z,100577.28
2022-08-20T05:08:05.308Z,100581.41
2022-08-20T05:10:43.604Z,100589.84
2022-08-20T05:13:11.124Z,100589.03
2022-08-20T05:15:40.437Z,100586.84
2022-08-20T05:18:09.104Z,100597.16
2022-08-20T05:20:41.985Z,100601.59
2022-08-20T05:23:10.891Z,100595.31
2022-08-20T05:25:39.063Z,100594.66
2022-08-20T05:28:09.292Z,100593.59
2022-08-20T05:30:37.789Z,100613.38
2022-08-20T05:33:08.255Z,100609.31
2022-08-20T05:35:38.553Z,100612.00
2022-08-20T05:38:07.256Z,100614.16
2022-08-20T05:40:34.748Z,100611.53
2022-08-20T05:43:04.523Z,100621.56
2022-08-20T05:45:32.160Z,100619.91
2022-08-20T05:47:59.671Z,100628.59
2022-08-20T05:50:33.145Z,100634.00
2022-08-20T05:53:01.401Z,100638.69
2022-08-20T05:55:29.286Z,100638.84
2022-08-20T05:57:58.197Z,100633.84
2022-08-20T06:00:26.180Z,100624.53
2022-08-20T06:03:11.182Z,100624.31
2022-08-20T06:05:40.085Z,100624.28
2022-08-20T06:08:08.208Z,100636.06
2022-08-20T06:10:36.206Z,100638.63
2022-08-20T06:13:04.137Z,100635.31
2022-08-20T06:15:32.277Z,100632.59
2022-08-20T06:17:59.844Z,100629.59
2022-08-20T06:20:28.911Z,100632.84
2022-08-20T06:22:57.769Z,100634.94
2022-08-20T06:25:25.234Z,100641.50
2022-08-20T06:27:52.757Z,100643.16
2022-08-20T06:30:20.352Z,100640.56
2022-08-20T06:32:47.831Z,100643.94
2022-08-20T06:35:19.735Z,100642.94
2022-08-20T06:37:48.027Z,100648.84
2022-08-20T06:40:22.859Z,100645.72
2022-08-20T06:42:51.028Z,100648.34
2022-08-20T06:45:20.251Z,100647.31
2022-08-20T06:47:48.478Z,100641.91
2022-08-20T06:50:18.049Z,100641.84
2022-08-20T06:52:52.704Z,100648.75
2022-08-20T06:55:22.750Z,100644.69
2022-08-20T06:57:57.963Z,100651.47
2022-08-20T07:00:25.514Z,100648.75
2022-08-20T07:02:53.184Z,100646.63
2022-08-20T07:05:20.788Z,100648.84
2022-08-20T07:07:50.409Z,100646.81
2022-08-20T07:10:20.352Z,100646.50
2022-08-20T07:12:50.286Z,100651.97
2022-08-20T07:15:19.361Z,100658.94
2022-08-20T07:17:51.273Z,100657.84
2022-08-20T07:20:19.127Z,100658.09
2022-08-20T07:22:46.630Z,100652.19
2022-08-20T07:25:18.063Z,100654.19
2022-08-20T07:27:46.621Z,100653.63
2022-08-20T07:30:56.229Z,100662.47
2022-08-20T07:33:22.657Z,100655.97
2022-08-20T07:35:50.345Z,100655.19
2022-08-20T07:38:24.251Z,100659.44
2022-08-20T07:40:53.123Z,100661.38
2022-08-20T07:43:21.494Z,100660.47
2022-08-20T07:45:52.201Z,100658.16
2022-08-20T07:48:31.295Z,100667.94
2022-08-20T07:51:01.052Z,100662.94
2022-08-20T07:53:32.303Z,100669.84
2022-08-20T07:56:03.325Z,100677.41
2022-08-20T07:58:33.093Z,100664.81
2022-08-20T08:01:02.592Z,100676.56
2022-08-20T08:03:40.449Z,100672.81
2022-08-20T08:06:28.725Z,100664.38
2022-08-20T08:08:59.446Z,100669.91
2022-08-20T08:11:27.027Z,100672.69
2022-08-20T08:13:54.546Z,100668.16
2022-08-20T08:16:23.489Z,100668.78
2022-08-20T08:18:56.268Z,100662.59
2022-08-20T08:21:23.791Z,100668.06
2022-08-20T08:23:51.320Z,100668.88
2022-08-20T08:26:19.819Z,100665.63
2022-08-20T08:28:47.438Z,100664.81
2022-08-20T08:31:16.197Z,100664.28
2022-08-20T08:33:45.051Z,100665.34
2022-08-20T08:36:15.107Z,100664.53
2022-08-20T08:38:44.958Z,100668.06
2022-08-20T08:41:17.310Z,100671.00
2022-08-20T08:43:46.677Z,100673.50
2022-08-20T08:46:14.855Z,100674.00
2022-08-20T08:48:47.613Z,100675.63
2022-08-20T08:51:18.096Z,100669.91
2022-08-20T08:53:48.709Z,100676.38
2022-08-20T08:56:16.358Z,100682.44
2022-08-20T08:58:44.440Z,100678.91
2022-08-20T09:01:53.140Z,100677.59
2022-08-20T09:04:05.870Z,100672.13
2022-08-20T09:06:33.831Z,100675.41
2022-08-20T09:09:03.298Z,100671.31
2022-08-20T09:11:32.051Z,100676.25
2022-08-20T09:13:59.589Z,100680.59
2022-08-20T09:16:27.973Z,100679.50
2022-08-20T09:19:01.931Z,100671.88
2022-08-20T09:21:29.508Z,100670.50
2022-08-20T09:23:57.016Z,100661.78
2022-08-20T09:26:29.111Z,100662.88
2022-08-20T09:28:56.782Z,100664.53
2022-08-20T09:31:24.330Z,100666.44
2022-08-20T09:33:51.929Z,100669.69
2022-08-20T09:36:30.677Z,100672.16
2022-08-20T09:39:00.353Z,100668.59
2022-08-20T09:41:28.020Z,100666.69
2022-08-20T09:43:55.521Z,100661.78
2022-08-20T09:46:27.260Z,100658.78
2022-08-20T09:48:55.160Z,100655.25
2022-08-20T09:51:24.099Z,100650.06
2022-08-20T09:53:51.680Z,100633.94
2022-08-20T09:56:19.279Z,100644.53
2022-08-20T09:58:49.603Z,100635.59
2022-08-20T10:01:19.046Z,100638.53
2022-08-20T10:03:48.850Z,100627.63
2022-08-20T10:06:17.742Z,100634.41
2022-08-20T10:08:46.904Z,100625.63
2022-08-20T10:11:14.446Z,100626.38
2022-08-20T10:13:41.957Z,100628.03
2022-08-20T10:16:09.462Z,100629.38
2022-08-20T10:18:37.369Z,100629.41
2022-08-20T10:21:10.443Z,100623.41
2022-08-20T10:23:37.950Z,100629.94
2022-08-20T10:26:08.249Z,100622.59
2022-08-20T10:28:35.901Z,100626.41
2022-08-20T10:31:04.603Z,100627.16
2022-08-20T10:33:32.185Z,100623.28
2022-08-20T10:36:00.261Z,100622.00
2022-08-20T10:38:27.835Z,100623.22
2022-08-20T10:40:55.465Z,100619.94
2022-08-20T10:43:24.288Z,100619.31
2022-08-20T10:45:52.087Z,100619.69
2022-08-20T10:48:21.506Z,100619.00
2022-08-20T10:50:49.843Z,100618.78
2022-08-20T10:53:17.340Z,100612.06
2022-08-20T10:55:45.024Z,100600.13
2022-08-20T10:58:13.133Z,100615.91
2022-08-20T11:00:42.165Z,100608.59
2022-08-20T11:03:09.653Z,100610.00
2022-08-20T11:05:37.130Z,100614.66
2022-08-20T11:08:05.554Z,100613.44
2022-08-20T11:10:35.111Z,100610.06
2022-08-20T11:13:03.877Z,100607.78
2022-08-20T11:15:37.298Z,100603.06
2022-08-20T11:18:06.892Z,100609.88
2022-08-20T11:20:34.757Z,100606.94
2022-08-20T11:23:02.603Z,100604.31
2022-08-20T11:25:30.656Z,100598.22
2022-08-20T11:27:58.749Z,100587.34
2022-08-20T11:30:28.993Z,100590.69
2022-08-20T11:32:57.137Z,100579.81
2022-08-20T11:35:43.463Z,100593.13
2022-08-20T11:38:14.451Z,100584.84
2022-08-20T11:40:41.955Z,100578.84
2022-08-20T11:43:17.836Z,100575.22
2022-08-20T11:45:46.439Z,100574.44
2022-08-20T11:48:14.491Z,100574.91
2022-08-20T11:50:43.327Z,100575.66
2022-08-20T11:53:10.980Z,100572.38
2022-08-20T11:55:38.903Z,100568.28
2022-08-20T11:58:06.715Z,100567.31
2022-08-20T12:00:36.638Z,100569.81
2022-08-20T12:03:08.878Z,100566.47
2022-08-20T12:05:37.759Z,100562.63
2022-08-20T12:08:08.298Z,100570.09
2022-08-20T12:10:36.535Z,100561.78
2022-08-20T12:13:04.704Z,100570.97
2022-08-20T12:15:32.804Z,100567.50
2022-08-20T12:18:01.118Z,100563.66
2022-08-20T12:20:28.709Z,100562.13
2022-08-20T12:22:56.569Z,100560.69
2022-08-20T12:25:25.595Z,100559.03
2022-08-20T12:27:53.119Z,100545.78
2022-08-20T12:30:22.469Z,100550.38
2022-08-20T12:32:50.149Z,100541.41
2022-08-20T12:35:19.475Z,100548.22
2022-08-20T12:37:47.442Z,100546.97
2022-08-20T12:40:21.477Z,100545.66
2022-08-20T12:43:01.353Z,100538.34
2022-08-20T12:45:29.489Z,100539.88
2022-08-20T12:48:02.638Z,100539.59
2022-08-20T12:50:31.792Z,100548.03
2022-08-20T12:52:59.758Z,100545.19
2022-08-20T12:55:27.458Z,100556.16
2022-08-20T12:57:57.110Z,100540.63
2022-08-20T13:00:28.419Z,100543.53
2022-08-20T13:02:58.607Z,100538.28
2022-08-20T13:05:28.081Z,100530.53
2022-08-20T13:07:56.055Z,100536.31
2022-08-20T13:10:27.849Z,100539.03
2022-08-20T13:12:55.524Z,100533.16
2022-08-20T13:15:23.943Z,100544.03
2022-08-20T13:17:53.895Z,100547.00
2022-08-20T13:20:21.861Z,100544.75
2022-08-20T13:22:49.506Z,100534.81
2022-08-20T13:25:17.075Z,100535.75
2022-08-20T13:27:45.493Z,100529.97
2022-08-20T13:30:15.726Z,100528.31
2022-08-20T13:32:43.274Z,100527.81
2022-08-20T13:35:13.056Z,100528.50
2022-08-20T13:37:42.595Z,100520.56
2022-08-20T13:40:11.446Z,100514.56
2022-08-20T13:42:41.021Z,100517.59
2022-08-20T13:45:10.471Z,100514.47
2022-08-20T13:47:40.021Z,100515.34
2022-08-20T13:50:10.195Z,100516.56
2022-08-20T13:52:39.715Z,100518.50
2022-08-20T13:55:12.173Z,100516.84
2022-08-20T13:57:40.956Z,100509.69
2022-08-20T14:00:11.763Z,100506.47
2022-08-20T14:02:39.392Z,100511.38
2022-08-20T14:05:07.857Z,100510.47
2022-08-20T14:07:39.680Z,100514.59
2022-08-20T14:10:09.814Z,100509.34
2022-08-20T14:12:37.613Z,100508.66
2022-08-20T14:15:06.586Z,100504.19
2022-08-20T14:17:35.410Z,100510.56
2022-08-20T14:20:05.737Z,100506.53
2022-08-20T14:22:36.485Z,100516.22
2022-08-20T14:25:06.606Z,100509.72
2022-08-20T14:27:34.560Z,100514.75
2022-08-20T14:30:02.877Z,100512.81
2022-08-20T14:32:30.464Z,100513.84
2022-08-20T14:34:59.344Z,100504.22
2022-08-20T14:37:30.362Z,100524.72
2022-08-20T14:39:59.341Z,100519.91
2022-08-20T14:42:30.385Z,100521.19
2022-08-20T14:44:58.884Z,100527.91
2022-08-20T14:47:27.952Z,100527.91
2022-08-20T14:49:59.577Z,100525.25
2022-08-20T14:52:28.183Z,100540.94
2022-08-20T14:54:56.577Z,100525.88
2022-08-20T14:57:24.374Z,100537.56
2022-08-20T14:59:54.706Z,100530.34
2022-08-20T15:02:22.335Z,100531.78
2022-08-20T15:04:54.465Z,100539.69
2022-08-20T15:07:25.001Z,100527.31
2022-08-20T15:09:53.553Z,100531.34
2022-08-20T15:12:21.184Z,100531.78
2022-08-20T15:14:50.271Z,100535.31
2022-08-20T15:17:21.589Z,100539.34
2022-08-20T15:19:49.875Z,100538.44
2022-08-20T15:22:18.491Z,100536.81
2022-08-20T15:24:46.115Z,100529.50
2022-08-20T15:27:20.383Z,100533.06
2022-08-20T15:29:50.478Z,100535.38
2022-08-20T15:32:20.119Z,100539.03
2022-08-20T15:34:47.859Z,100544.03
2022-08-20T15:37:18.687Z,100537.81
2022-08-20T15:39:46.648Z,100547.94
2022-08-20T15:42:14.874Z,100545.50
2022-08-20T15:44:43.549Z,100543.78
2022-08-20T15:47:24.008Z,100550.75
2022-08-20T15:49:54.687Z,100544.41
2022-08-20T15:52:22.694Z,100547.28
2022-08-20T15:54:54.995Z,100546.81
2022-08-20T15:57:35.898Z,100557.06
2022-08-20T16:00:13.101Z,100553.69
2022-08-20T16:02:57.565Z,100558.81
2022-08-20T16:05:30.801Z,100544.72
2022-08-20T16:08:08.674Z,100553.03
2022-08-20T16:10:44.528Z,100557.03
2022-08-20T16:13:21.588Z,100561.25
2022-08-20T16:15:53.136Z,100561.16
2022-08-20T16:18:24.221Z,100563.59
2022-08-20T16:20:54.045Z,100561.91
2022-08-20T16:23:24.719Z,100575.09
2022-08-20T16:26:00.070Z,100583.22
2022-08-20T16:28:32.001Z,100570.16
2022-08-20T16:31:01.754Z,100573.75
2022-08-20T16:33:32.953Z,100571.53
2022-08-20T16:36:08.008Z,100571.91
2022-08-20T16:38:41.873Z,100583.44
2022-08-20T16:41:14.052Z,100570.50
2022-08-20T16:43:47.050Z,100586.22
2022-08-20T16:46:18.520Z,100589.31
2022-08-20T16:48:51.082Z,100592.06
2022-08-20T16:51:22.610Z,100602.75
2022-08-20T16:53:50.071Z,100593.81
2022-08-20T16:56:31.517Z,100588.09
2022-08-20T16:59:02.969Z,100596.84
2022-08-20T17:01:30.765Z,100591.22
2022-08-20T17:03:59.886Z,100595.81
2022-08-20T17:06:33.591Z,100593.13
2022-08-20T17:09:06.348Z,100606.13
2022-08-20T17:11:36.275Z,100606.50
2022-08-20T17:14:10.304Z,100597.56
2022-08-20T17:16:40.767Z,100598.59
2022-08-20T17:19:13.494Z,100600.00
2022-08-20T17:21:42.153Z,100602.69
2022-08-20T17:24:16.704Z,100602.16
2022-08-20T17:26:46.733Z,100602.88
2022-08-20T17:29:16.175Z,100609.34
2022-08-20T17:31:46.222Z,100617.56
2022-08-20T17:34:16.426Z,100614.63
2022-08-20T17:36:53.925Z,100614.91
2022-08-20T17:39:22.816Z,100609.94
2022-08-20T17:41:53.544Z,100618.09
2022-08-20T17:44:23.364Z,100621.16
2022-08-20T17:46:51.084Z,100622.16
2022-08-20T17:49:21.344Z,100632.03
2022-08-20T17:51:51.276Z,100625.75
2022-08-20T17:54:23.310Z,100628.09
2022-08-20T17:56:54.225Z,100642.41
2022-08-20T18:00:00.369Z,100650.56
2022-08-20T18:02:14.767Z,100654.09
2022-08-20T18:04:43.989Z,100653.91
2022-08-20T18:07:19.240Z,100658.38
2022-08-20T18:09:51.797Z,100654.88
2022-08-20T18:12:33.318Z,100658.97
2022-08-20T18:15:07.470Z,100655.94
2022-08-20T18:17:49.387Z,100663.38
2022-08-20T18:20:37.883Z,100659.53
2022-08-20T18:23:09.242Z,100668.81
2022-08-20T18:25:39.247Z,100669.16
2022-08-20T18:28:10.681Z,100674.94
2022-08-20T18:30:48.623Z,100677.41
2022-08-20T18:33:27.372Z,100677.13
2022-08-20T18:36:11.158Z,100684.50
2022-08-20T18:38:42.021Z,100681.53
2022-08-20T18:41:12.742Z,100680.47
2022-08-20T18:43:40.766Z,100680.78
2022-08-20T18:46:14.264Z,100687.59
2022-08-20T18:48:55.626Z,100685.41
2022-08-20T18:51:30.156Z,100690.06
2022-08-20T18:53:57.685Z,100688.22
2022-08-20T18:56:41.158Z,100702.66
2022-08-20T18:59:14.362Z,100701.25
2022-08-20T19:01:43.007Z,100702.91
2022-08-20T19:04:22.422Z,100707.28
2022-08-20T19:06:57.466Z,100709.47
2022-08-20T19:09:49.856Z,100714.34
2022-08-20T19:12:29.415Z,100719.00
2022-08-20T19:15:01.336Z,100712.97
2022-08-20T19:17:44.366Z,100719.97
2022-08-20T19:20:16.295Z,100723.50
2022-08-20T19:22:45.961Z,100722.94
2022-08-20T19:25:23.700Z,100718.53
2022-08-20T19:27:51.609Z,100726.94
2022-08-20T19:30:29.747Z,100737.56
2022-08-20T19:32:57.451Z,100729.16
2022-08-20T19:35:25.374Z,100729.34
2022-08-20T19:37:54.372Z,100734.22
2022-08-20T19:40:28.280Z,100727.66
2022-08-20T19:42:57.992Z,100727.06
2022-08-20T19:45:30.774Z,100728.06
2022-08-20T19:48:18.224Z,100728.59
2022-08-20T19:51:02.094Z,100735.97
2022-08-20T19:53:33.022Z,100731.63
2022-08-20T19:56:02.218Z,100726.34
2022-08-20T19:58:31.358Z,100735.78
2022-08-20T20:00:59.437Z,100736.06
2022-08-20T20:03:30.234Z,100730.38
2022-08-20T20:06:02.009Z,100732.81
2022-08-20T20:08:39.903Z,100738.25
2022-08-20T20:11:07.818Z,100738.00
2022-08-20T20:13:39.913Z,100730.41
2022-08-20T20:16:08.111Z,100728.31
2022-08-20T20:18:39.056Z,100721.78
2022-08-20T20:21:15.101Z,100721.13
2022-08-20T20:23:52.251Z,100730.19
2022-08-20T20:26:20.809Z,100716.28
2022-08-20T20:28:50.376Z,100720.53
2022-08-20T20:31:24.541Z,100718.91
2022-08-20T20:33:54.793Z,100716.69
2022-08-20T20:36:33.887Z,100715.03
2022-08-20T20:39:08.472Z,100719.59
2022-08-20T20:41:38.967Z,100720.41
2022-08-20T20:44:17.102Z,100719.09
2022-08-20T20:46:47.363Z,100718.28
2022-08-20T20:49:21.230Z,100723.50
2022-08-20T20:51:55.369Z,100718.75
2022-08-20T20:54:28.398Z,100722.72
2022-08-20T20:57:02.447Z,100719.78
2022-08-20T20:59:30.687Z,100722.72
2022-08-20T21:01:58.307Z,100723.38
2022-08-20T21:04:26.361Z,100719.84
2022-08-20T21:06:56.614Z,100721.47
2022-08-20T21:09:26.564Z,100727.41
2022-08-20T21:11:54.200Z,100724.22
2022-08-20T21:14:21.782Z,100728.81
2022-08-20T21:16:49.350Z,100719.94
2022-08-20T21:19:17.080Z,100725.53
2022-08-20T21:21:44.911Z,100730.53
2022-08-20T21:24:13.003Z,100735.03
2022-08-20T21:26:42.242Z,100739.47
2022-08-20T21:29:10.909Z,100747.59
2022-08-20T21:31:43.938Z,100740.09
2022-08-20T21:34:11.951Z,100737.66
2022-08-20T21:36:39.699Z,100741.34
2022-08-20T21:39:07.326Z,100748.75
2022-08-20T21:41:36.427Z,100741.53
2022-08-20T21:44:08.442Z,100737.47
2022-08-20T21:46:36.040Z,100731.88
2022-08-20T21:49:04.535Z,100741.13
2022-08-20T21:51:32.466Z,100734.94
2022-08-20T21:54:00.786Z,100741.56
2022-08-20T21:56:28.372Z,100739.53
2022-08-20T21:59:00.160Z,100742.38
2022-08-20T22:01:29.714Z,100742.78
2022-08-20T22:03:57.323Z,100745.38
2022-08-20T22:06:25.005Z,100756.44
2022-08-20T22:08:52.565Z,100750.66
2022-08-20T22:11:20.542Z,100757.22
2022-08-20T22:13:48.100Z,100754.91
2022-08-20T22:16:18.415Z,100759.59
2022-08-20T22:18:48.596Z,100743.63
2022-08-20T22:21:18.387Z,100758.31
2022-08-20T22:23:46.637Z,100758.06
2022-08-20T22:26:16.223Z,100746.00
2022-08-20T22:28:43.948Z,100750.66
2022-08-20T22:31:20.614Z,100747.28
2022-08-20T22:33:49.521Z,100748.19
2022-08-20T22:36:27.687Z,100751.03
2022-08-20T22:38:55.709Z,100742.56
2022-08-20T22:41:26.226Z,100745.53
2022-08-20T22:43:56.515Z,100750.06
2022-08-20T22:46:26.757Z,100748.13
2022-08-20T22:48:55.956Z,100739.59
2022-08-20T22:51:28.223Z,100749.34
2022-08-20T22:53:55.892Z,100743.66
2022-08-20T22:56:23.454Z,100746.13
2022-08-20T22:58:51.013Z,100747.59
2022-08-20T23:01:19.784Z,100754.56
2022-08-20T23:03:47.463Z,100753.81
2022-08-20T23:06:16.584Z,100754.19
2022-08-20T23:08:45.392Z,100751.72
2022-08-20T23:11:13.702Z,100755.16
2022-08-20T23:13:41.196Z,100759.88
2022-08-20T23:16:08.941Z,100754.94
2022-08-20T23:18:36.545Z,100749.72
2022-08-20T23:21:04.131Z,100745.75
2022-08-20T23:23:33.497Z,100747.59
2022-08-20T23:26:01.390Z,100751.91
2022-08-20T23:28:29.029Z,100746.88
2022-08-20T23:30:56.583Z,100749.53
2022-08-20T23:33:24.185Z,100750.75
2022-08-20T23:35:51.788Z,100753.59
2022-08-20T23:38:20.535Z,100752.66
2022-08-20T23:40:49.617Z,100749.78
2022-08-20T23:43:18.679Z,100754.69
2022-08-20T23:45:46.384Z,100746.13
2022-08-20T23:48:14.056Z,100751.72
2022-08-20T23:50:42.001Z,100756.97
2022-08-20T23:53:09.838Z,100757.56
2022-08-20T23:55:38.948Z,100754.78
2022-08-20T23:58:08.261Z,100756.41
